Time;durP1;ratioP1;P1;durP2;ratioP2;P2;SDS_P1;SDS_P2;PMS_P1;PMS_P2;Temp;Humidity;BMP_temperature;BMP_pressure;BME280_temperature;BME280_humidity;BME280_pressure;Samples;Min_cycle;Max_cycle;Signal;HPM_P1;HPM_P2
2023/06/18 00:00:15;;;;;;;;;;;22.30;63.50;;;;;;7325616;19;9425;-30
2023/06/18 00:02:45;;;;;;;;;;;22.30;63.70;;;;;;7326578;19;9286;-24
2023/06/18 00:05:14;;;;;;;;;;;22.20;63.50;;;;;;7326162;19;11981;-30
2023/06/18 00:07:43;;;;;;;;;;;22.20;63.70;;;;;;7327259;19;9328;-27
2023/06/18 00:10:15;;;;;;;;;;;22.10;63.70;;;;;;7327008;19;9231;-24
2023/06/18 00:12:44;;;;;;;;;;;22.10;63.80;;;;;;7326338;19;9173;-30
2023/06/18 00:15:13;;;;;;;;;;;22.00;63.90;;;;;;7325976;19;9305;-33
2023/06/18 00:17:42;;;;;;;;;;;22.00;64.00;;;;;;7326780;19;9200;-29
2023/06/18 00:20:13;;;;;;;;;;;22.10;64.00;;;;;;7326218;19;10082;-32
2023/06/18 00:22:43;;;;;;;;;;;22.30;64.00;;;;;;7326712;19;9325;-30
2023/06/18 00:25:15;;;;;;;;;;;22.30;63.70;;;;;;7326213;19;9206;-29
2023/06/18 00:27:44;;;;;;;;;;;22.30;63.50;;;;;;7325109;19;9166;-25
2023/06/18 00:30:15;;;;;;;;;;;22.50;63.50;;;;;;7325825;19;10362;-26
2023/06/18 00:32:46;;;;;;;;;;;22.60;63.30;;;;;;7324727;19;9197;-26
2023/06/18 00:35:17;;;;;;;;;;;22.70;63.10;;;;;;7325100;19;9303;-24
2023/06/18 00:37:47;;;;;;;;;;;22.80;62.90;;;;;;7325933;19;9237;-29
2023/06/18 00:40:18;;;;;;;;;;;22.70;62.80;;;;;;7322057;19;9308;-26
2023/06/18 00:42:48;;;;;;;;;;;22.70;62.80;;;;;;7324495;19;9190;-28
2023/06/18 00:45:17;;;;;;;;;;;22.70;62.70;;;;;;7325757;19;9453;-24
2023/06/18 00:47:48;;;;;;;;;;;22.80;62.60;;;;;;7324609;19;9244;-29
2023/06/18 00:50:18;;;;;;;;;;;22.80;62.50;;;;;;7325677;19;9330;-26
2023/06/18 00:52:51;;;;;;;;;;;22.80;62.40;;;;;;7325653;19;9221;-28
2023/06/18 00:55:26;;;;;;;;;;;22.90;62.20;;;;;;7326663;19;8944;-27
2023/06/18 00:57:59;;;;;;;;;;;22.90;61.90;;;;;;7332078;19;10078;-28
2023/06/18 01:00:28;;;;;;;;;;;23.00;61.70;;;;;;7333014;19;9257;-24
2023/06/18 01:02:59;;;;;;;;;;;23.10;61.50;;;;;;7331769;19;9295;-27
2023/06/18 01:05:29;;;;;;;;;;;22.90;61.40;;;;;;7331647;19;9217;-26
2023/06/18 01:07:59;;;;;;;;;;;22.70;61.70;;;;;;7331332;19;9249;-24
2023/06/18 01:10:32;;;;;;;;;;;22.50;61.70;;;;;;7330352;19;10122;-24
2023/06/18 01:13:02;;;;;;;;;;;22.30;62.00;;;;;;7331211;19;9213;-25
2023/06/18 01:15:31;;;;;;;;;;;22.30;62.20;;;;;;7332544;19;9142;-27
2023/06/18 01:18:06;;;;;;;;;;;22.10;62.20;;;;;;7331634;19;8992;-24
2023/06/18 01:20:40;;;;;;;;;;;22.00;62.10;;;;;;7332365;19;9181;-26
2023/06/18 01:23:21;;;;;;;;;;;21.90;62.20;;;;;;7329936;19;9163;-27
2023/06/18 01:25:55;;;;;;;;;;;21.90;62.10;;;;;;7329585;19;10161;-24
2023/06/18 01:28:27;;;;;;;;;;;21.80;62.10;;;;;;7331468;19;9150;-29
2023/06/18 01:30:57;;;;;;;;;;;21.70;62.10;;;;;;7331958;19;10298;-24
2023/06/18 01:33:27;;;;;;;;;;;21.70;62.30;;;;;;7333003;19;9170;-27
2023/06/18 01:35:57;;;;;;;;;;;21.50;62.30;;;;;;7331307;19;9213;-27
2023/06/18 01:38:39;;;;;;;;;;;21.50;62.50;;;;;;7330709;19;9240;-24
2023/06/18 01:41:18;;;;;;;;;;;21.70;62.40;;;;;;7330864;19;9233;-32
2023/06/18 01:43:53;;;;;;;;;;;22.00;61.90;;;;;;7331429;19;9208;-28
2023/06/18 01:46:25;;;;;;;;;;;22.20;61.40;;;;;;7331342;19;9306;-25
2023/06/18 01:48:59;;;;;;;;;;;22.40;60.90;;;;;;7330031;19;9190;-26
2023/06/18 01:51:32;;;;;;;;;;;22.70;60.60;;;;;;7331861;19;9252;-24
2023/06/18 01:54:05;;;;;;;;;;;22.90;60.10;;;;;;7331038;19;9201;-28
2023/06/18 01:56:37;;;;;;;;;;;23.10;59.70;;;;;;7328685;19;9226;-27
2023/06/18 01:59:07;;;;;;;;;;;23.20;59.30;;;;;;7328728;19;9442;-28
2023/06/18 02:01:36;;;;;;;;;;;23.30;59.00;;;;;;7331112;19;9461;-29
2023/06/18 02:04:06;;;;;;;;;;;23.50;58.50;;;;;;7331877;19;9224;-31
2023/06/18 02:06:35;;;;;;;;;;;23.70;58.20;;;;;;7328373;19;10626;-30
2023/06/18 02:09:04;;;;;;;;;;;23.80;57.90;;;;;;7329482;19;9312;-28
2023/06/18 02:11:33;;;;;;;;;;;23.90;57.70;;;;;;7320483;19;9265;-29
2023/06/18 02:14:05;;;;;;;;;;;24.00;57.70;;;;;;7330510;19;9306;-29
2023/06/18 02:16:34;;;;;;;;;;;24.00;57.60;;;;;;7330289;19;9174;-27
2023/06/18 02:19:03;;;;;;;;;;;24.10;57.40;;;;;;7329952;19;9146;-29
2023/06/18 02:21:32;;;;;;;;;;;24.00;57.20;;;;;;7330359;19;9224;-27
2023/06/18 02:24:01;;;;;;;;;;;24.10;57.10;;;;;;7330416;19;9220;-27
2023/06/18 02:26:30;;;;;;;;;;;24.10;57.00;;;;;;7329487;19;9192;-26
2023/06/18 02:29:00;;;;;;;;;;;24.10;56.90;;;;;;7327145;19;9186;-26
2023/06/18 02:31:31;;;;;;;;;;;24.10;57.00;;;;;;7329329;19;9216;-25
2023/06/18 02:34:01;;;;;;;;;;;24.10;56.70;;;;;;7329604;19;9233;-28
2023/06/18 02:36:32;;;;;;;;;;;24.10;56.70;;;;;;7329789;19;9242;-28
2023/06/18 02:39:01;;;;;;;;;;;24.10;56.80;;;;;;7327083;19;10363;-29
2023/06/18 02:41:30;;;;;;;;;;;24.10;56.80;;;;;;7329513;19;9206;-30
2023/06/18 02:43:59;;;;;;;;;;;24.10;56.80;;;;;;7327402;19;9174;-29
2023/06/18 02:46:31;;;;;;;;;;;24.00;56.60;;;;;;7329386;19;9183;-28
2023/06/18 02:49:00;;;;;;;;;;;24.10;56.80;;;;;;7328052;19;9174;-28
2023/06/18 02:51:29;;;;;;;;;;;24.10;57.50;;;;;;7328070;19;8997;-27
2023/06/18 02:53:59;;;;;;;;;;;24.20;56.80;;;;;;7328961;19;9173;-30
2023/06/18 02:56:28;;;;;;;;;;;24.30;56.70;;;;;;7326001;19;9184;-23
2023/06/18 02:58:58;;;;;;;;;;;24.40;56.80;;;;;;7328336;19;9203;-30
2023/06/18 03:01:27;;;;;;;;;;;24.40;56.60;;;;;;7328945;19;8944;-28
2023/06/18 03:03:59;;;;;;;;;;;24.40;56.40;;;;;;7328069;19;9458;-25
2023/06/18 03:06:30;;;;;;;;;;;24.50;56.40;;;;;;7328141;19;9253;-28
2023/06/18 03:08:59;;;;;;;;;;;24.50;56.70;;;;;;7327810;19;9351;-27
2023/06/18 03:11:28;;;;;;;;;;;24.50;56.30;;;;;;7329385;19;10115;-28
2023/06/18 03:13:57;;;;;;;;;;;24.60;56.30;;;;;;7327313;19;9166;-24
2023/06/18 03:16:26;;;;;;;;;;;24.60;56.20;;;;;;7329009;19;9170;-28
2023/06/18 03:18:56;;;;;;;;;;;24.60;56.10;;;;;;7325333;19;9166;-28
2023/06/18 03:21:28;;;;;;;;;;;24.70;56.10;;;;;;7327963;19;9347;-28
2023/06/18 03:23:57;;;;;;;;;;;24.70;56.00;;;;;;7327614;19;9446;-24
2023/06/18 03:26:26;;;;;;;;;;;24.80;56.20;;;;;;7326031;19;9415;-28
2023/06/18 03:28:56;;;;;;;;;;;24.80;56.10;;;;;;7326830;19;9191;-26
2023/06/18 03:31:26;;;;;;;;;;;24.70;56.20;;;;;;7325956;19;9221;-25
2023/06/18 03:34:01;;;;;;;;;;;24.70;56.10;;;;;;7326231;19;10329;-28
2023/06/18 03:36:39;;;;;;;;;;;24.80;56.30;;;;;;7326165;19;9143;-26
2023/06/18 03:39:08;;;;;;;;;;;24.70;56.10;;;;;;7326954;19;9438;-31
2023/06/18 03:41:38;;;;;;;;;;;24.80;56.10;;;;;;7325798;19;9230;-24
2023/06/18 03:44:07;;;;;;;;;;;24.80;56.10;;;;;;7326786;19;9216;-24
2023/06/18 03:46:37;;;;;;;;;;;24.90;56.00;;;;;;7326763;19;9263;-25
2023/06/18 03:49:06;;;;;;;;;;;24.80;56.00;;;;;;7327040;19;9490;-24
2023/06/18 03:51:38;;;;;;;;;;;24.90;56.20;;;;;;7326402;19;9245;-30
2023/06/18 03:54:07;;;;;;;;;;;24.90;56.30;;;;;;7327500;19;9423;-31
2023/06/18 03:56:36;;;;;;;;;;;24.90;56.30;;;;;;7325663;19;9164;-26
2023/06/18 03:59:05;;;;;;;;;;;24.90;56.30;;;;;;7325883;19;10134;-34
2023/06/18 04:01:34;;;;;;;;;;;24.90;56.30;;;;;;7325272;19;9225;-28
2023/06/18 04:04:04;;;;;;;;;;;24.90;56.30;;;;;;7327794;19;9223;-28
2023/06/18 04:06:33;;;;;;;;;;;24.90;56.30;;;;;;7327010;19;9415;-26
2023/06/18 04:09:05;;;;;;;;;;;24.90;56.40;;;;;;7327911;19;9201;-27
2023/06/18 04:11:34;;;;;;;;;;;24.90;56.40;;;;;;7325922;19;9155;-27
2023/06/18 04:14:07;;;;;;;;;;;24.90;56.40;;;;;;7325144;19;9205;-31
2023/06/18 04:16:36;;;;;;;;;;;24.90;56.30;;;;;;7325585;19;9193;-25
2023/06/18 04:19:05;;;;;;;;;;;25.00;56.40;;;;;;7324818;19;9490;-25
2023/06/18 04:21:35;;;;;;;;;;;25.00;56.40;;;;;;7326513;19;9263;-25
2023/06/18 04:24:07;;;;;;;;;;;25.00;56.40;;;;;;7324381;19;9269;-26
2023/06/18 04:26:37;;;;;;;;;;;25.00;56.50;;;;;;7326449;19;9199;-31
2023/06/18 04:29:07;;;;;;;;;;;25.10;56.50;;;;;;7328085;19;9213;-26
2023/06/18 04:31:36;;;;;;;;;;;25.10;56.60;;;;;;7333531;19;9224;-31
2023/06/18 04:34:05;;;;;;;;;;;25.10;56.80;;;;;;7333707;19;9248;-26
2023/06/18 04:36:36;;;;;;;;;;;25.00;56.80;;;;;;7332737;19;9178;-25
2023/06/18 04:39:08;;;;;;;;;;;25.00;56.80;;;;;;7331687;19;9127;-30
2023/06/18 04:41:37;;;;;;;;;;;25.00;57.00;;;;;;7333565;19;10372;-27
2023/06/18 04:44:06;;;;;;;;;;;25.00;57.00;;;;;;7332024;19;8944;-24
2023/06/18 04:46:35;;;;;;;;;;;25.00;57.00;;;;;;7333313;19;9209;-25
2023/06/18 04:49:05;;;;;;;;;;;25.00;57.00;;;;;;7333281;19;10070;-25
2023/06/18 04:51:35;;;;;;;;;;;25.10;56.90;;;;;;7333391;19;9173;-27
2023/06/18 04:54:06;;;;;;;;;;;25.10;56.90;;;;;;7332022;19;9465;-28
2023/06/18 04:56:35;;;;;;;;;;;25.10;56.90;;;;;;7332584;19;10731;-27
2023/06/18 04:59:06;;;;;;;;;;;25.10;56.90;;;;;;7331213;19;9194;-29
2023/06/18 05:01:35;;;;;;;;;;;25.20;56.90;;;;;;7331613;19;9209;-25
2023/06/18 05:04:04;;;;;;;;;;;25.20;56.90;;;;;;7332786;19;9152;-25
2023/06/18 05:06:33;;;;;;;;;;;25.30;57.00;;;;;;7331889;19;9198;-25
2023/06/18 05:09:03;;;;;;;;;;;25.20;56.90;;;;;;7332175;19;9210;-25
2023/06/18 05:11:35;;;;;;;;;;;25.30;57.00;;;;;;7329800;19;10152;-27
2023/06/18 05:14:05;;;;;;;;;;;25.30;57.10;;;;;;7331596;19;9299;-26
2023/06/18 05:16:34;;;;;;;;;;;25.30;56.90;;;;;;7331735;19;9178;-28
2023/06/18 05:19:04;;;;;;;;;;;25.30;57.00;;;;;;7331986;19;9449;-25
2023/06/18 05:21:33;;;;;;;;;;;25.30;57.10;;;;;;7331775;19;9177;-28
2023/06/18 05:24:02;;;;;;;;;;;25.30;57.10;;;;;;7331455;19;11734;-29
2023/06/18 05:26:39;;;;;;;;;;;25.30;57.10;;;;;;7331394;19;9727;-30
2023/06/18 05:29:08;;;;;;;;;;;25.40;57.20;;;;;;7331395;19;9346;-26
2023/06/18 05:31:37;;;;;;;;;;;25.30;57.20;;;;;;7329300;19;9214;-26
2023/06/18 05:34:06;;;;;;;;;;;25.40;57.40;;;;;;7331998;19;8996;-28
2023/06/18 05:36:36;;;;;;;;;;;25.40;57.60;;;;;;7331050;19;9181;-26
2023/06/18 05:39:05;;;;;;;;;;;25.30;57.70;;;;;;7330635;19;10731;-26
2023/06/18 05:41:34;;;;;;;;;;;25.30;57.90;;;;;;7329389;19;10147;-24
2023/06/18 05:44:06;;;;;;;;;;;25.30;57.90;;;;;;7331157;19;8944;-25
2023/06/18 05:46:35;;;;;;;;;;;25.40;57.90;;;;;;7331271;19;9201;-24
2023/06/18 05:49:05;;;;;;;;;;;25.40;58.00;;;;;;7330066;19;9253;-26
2023/06/18 05:51:34;;;;;;;;;;;25.40;58.00;;;;;;7329006;19;9237;-30
2023/06/18 05:54:03;;;;;;;;;;;25.40;58.20;;;;;;7330277;19;9146;-29
2023/06/18 05:56:32;;;;;;;;;;;25.40;58.20;;;;;;7330428;19;9275;-27
2023/06/18 05:59:01;;;;;;;;;;;25.40;58.40;;;;;;7329435;19;8944;-31
2023/06/18 06:01:33;;;;;;;;;;;25.40;58.40;;;;;;7330470;19;9207;-25
2023/06/18 06:04:04;;;;;;;;;;;25.40;58.50;;;;;;7329384;19;9162;-29
2023/06/18 06:06:33;;;;;;;;;;;25.40;58.70;;;;;;7330669;19;9181;-24
2023/06/18 06:09:02;;;;;;;;;;;25.30;58.60;;;;;;7329413;19;9383;-27
2023/06/18 06:11:34;;;;;;;;;;;25.30;58.70;;;;;;7329207;19;9212;-24
2023/06/18 06:14:03;;;;;;;;;;;25.30;58.70;;;;;;7330368;19;9064;-30
2023/06/18 06:16:35;;;;;;;;;;;25.30;58.80;;;;;;7330504;19;9197;-27
2023/06/18 06:19:04;;;;;;;;;;;25.30;58.70;;;;;;7330592;19;9178;-31
2023/06/18 06:21:33;;;;;;;;;;;25.40;58.90;;;;;;7330316;19;9181;-24
2023/06/18 06:24:03;;;;;;;;;;;25.40;59.00;;;;;;7329783;19;9186;-28
2023/06/18 06:26:32;;;;;;;;;;;25.40;58.80;;;;;;7328735;19;9142;-28
2023/06/18 06:29:01;;;;;;;;;;;25.40;58.80;;;;;;7329192;19;9225;-33
2023/06/18 06:31:30;;;;;;;;;;;25.50;58.90;;;;;;7328080;19;9385;-26
2023/06/18 06:34:02;;;;;;;;;;;25.50;59.10;;;;;;7329278;19;9202;-28
2023/06/18 06:36:31;;;;;;;;;;;25.50;59.00;;;;;;7330010;19;9322;-30
2023/06/18 06:39:02;;;;;;;;;;;25.50;59.20;;;;;;7328663;19;9459;-27
2023/06/18 06:41:31;;;;;;;;;;;25.50;59.30;;;;;;7330415;19;9031;-24
2023/06/18 06:44:00;;;;;;;;;;;25.50;59.40;;;;;;7328695;19;9460;-29
2023/06/18 06:46:29;;;;;;;;;;;25.50;59.40;;;;;;7330081;19;9179;-26
2023/06/18 06:49:03;;;;;;;;;;;25.50;59.20;;;;;;7328848;19;10067;-33
2023/06/18 06:51:33;;;;;;;;;;;25.60;59.20;;;;;;7327911;19;9442;-31
2023/06/18 06:54:02;;;;;;;;;;;25.60;59.10;;;;;;7328870;19;9213;-31
2023/06/18 06:56:33;;;;;;;;;;;25.70;59.10;;;;;;7328228;19;9593;-27
2023/06/18 06:59:02;;;;;;;;;;;25.80;59.10;;;;;;7327571;19;9224;-25
2023/06/18 07:01:31;;;;;;;;;;;25.80;59.10;;;;;;7328325;19;9143;-32
2023/06/18 07:04:03;;;;;;;;;;;25.90;59.10;;;;;;7328715;19;10118;-29
2023/06/18 07:06:32;;;;;;;;;;;25.90;59.10;;;;;;7327232;19;10114;-29
2023/06/18 07:09:03;;;;;;;;;;;25.90;59.00;;;;;;7329101;19;9147;-26
2023/06/18 07:11:32;;;;;;;;;;;26.00;59.10;;;;;;7326124;19;9226;-24
2023/06/18 07:14:02;;;;;;;;;;;26.00;59.10;;;;;;7328341;19;9441;-27
2023/06/18 07:16:31;;;;;;;;;;;26.10;59.10;;;;;;7327032;19;9443;-26
2023/06/18 07:19:03;;;;;;;;;;;26.10;59.20;;;;;;7328651;19;9327;-29
2023/06/18 07:21:33;;;;;;;;;;;26.10;59.20;;;;;;7328121;19;9346;-27
2023/06/18 07:24:02;;;;;;;;;;;26.10;59.20;;;;;;7328107;19;9265;-29
2023/06/18 07:26:31;;;;;;;;;;;26.20;59.30;;;;;;7326439;19;9498;-26
2023/06/18 07:29:00;;;;;;;;;;;26.20;59.30;;;;;;7328665;19;9249;-26
2023/06/18 07:31:29;;;;;;;;;;;26.30;59.30;;;;;;7326680;19;9257;-26
2023/06/18 07:33:58;;;;;;;;;;;26.30;59.40;;;;;;7327927;19;9217;-24
2023/06/18 07:36:30;;;;;;;;;;;26.30;59.40;;;;;;7327938;19;9249;-25
2023/06/18 07:38:59;;;;;;;;;;;26.40;59.30;;;;;;7327388;19;9267;-27
2023/06/18 07:41:29;;;;;;;;;;;26.40;59.20;;;;;;7327934;19;9213;-24
2023/06/18 07:44:00;;;;;;;;;;;26.40;59.00;;;;;;7328234;19;9216;-26
2023/06/18 07:46:30;;;;;;;;;;;26.40;59.30;;;;;;7327092;19;9193;-28
2023/06/18 07:48:59;;;;;;;;;;;26.50;59.50;;;;;;7326152;19;9260;-24
2023/06/18 07:51:31;;;;;;;;;;;26.50;59.30;;;;;;7326342;19;9197;-26
2023/06/18 07:54:00;;;;;;;;;;;26.60;59.50;;;;;;7328033;19;9336;-29
2023/06/18 07:56:29;;;;;;;;;;;26.60;59.30;;;;;;7326744;19;9221;-28
2023/06/18 07:58:58;;;;;;;;;;;26.60;59.30;;;;;;7324786;19;9154;-30
2023/06/18 08:01:27;;;;;;;;;;;26.50;60.90;;;;;;7326555;19;9168;-31
2023/06/18 08:03:56;;;;;;;;;;;26.40;60.00;;;;;;7325467;19;9593;-28
2023/06/18 08:06:26;;;;;;;;;;;26.40;60.10;;;;;;7326666;19;9216;-24
2023/06/18 08:08:57;;;;;;;;;;;26.40;60.30;;;;;;7325777;19;9217;-28
2023/06/18 08:11:27;;;;;;;;;;;26.40;60.50;;;;;;7325820;19;9160;-29
2023/06/18 08:13:56;;;;;;;;;;;26.40;61.00;;;;;;7324445;19;9225;-24
2023/06/18 08:16:25;;;;;;;;;;;26.40;60.80;;;;;;7326721;19;9256;-31
2023/06/18 08:18:54;;;;;;;;;;;26.40;60.80;;;;;;7326782;19;9442;-27
2023/06/18 08:21:23;;;;;;;;;;;26.30;61.10;;;;;;7327372;19;9209;-24
2023/06/18 08:23:53;;;;;;;;;;;26.30;61.30;;;;;;7326129;19;9548;-27
2023/06/18 08:26:25;;;;;;;;;;;26.30;61.40;;;;;;7324575;19;9466;-24
2023/06/18 08:28:54;;;;;;;;;;;26.30;60.80;;;;;;7325687;19;9264;-28
2023/06/18 08:31:23;;;;;;;;;;;26.40;61.00;;;;;;7324944;19;9189;-26
2023/06/18 08:33:52;;;;;;;;;;;26.40;61.10;;;;;;7325359;19;9143;-24
2023/06/18 08:36:22;;;;;;;;;;;26.50;61.20;;;;;;7326561;19;9233;-33
2023/06/18 08:38:52;;;;;;;;;;;26.50;61.80;;;;;;7324241;19;10290;-26
2023/06/18 08:41:24;;;;;;;;;;;26.50;61.70;;;;;;7327060;19;8944;-30
2023/06/18 08:43:54;;;;;;;;;;;26.40;61.40;;;;;;7325643;19;10138;-29
2023/06/18 08:46:24;;;;;;;;;;;26.30;61.80;;;;;;7326345;19;9466;-30
2023/06/18 08:49:00;;;;;;;;;;;26.30;61.60;;;;;;7325943;19;9221;-26
2023/06/18 08:51:30;;;;;;;;;;;26.30;61.60;;;;;;7323813;19;8948;-24
2023/06/18 08:54:07;;;;;;;;;;;26.40;61.60;;;;;;7326038;19;8944;-29
2023/06/18 08:56:45;;;;;;;;;;;26.40;61.40;;;;;;7324662;19;10705;-29
2023/06/18 08:59:15;;;;;;;;;;;26.60;61.60;;;;;;7324115;19;9484;-30
2023/06/18 09:01:48;;;;;;;;;;;26.60;61.20;;;;;;7324297;19;9559;-35
2023/06/18 09:04:19;;;;;;;;;;;26.70;60.80;;;;;;7326100;19;9274;-32
2023/06/18 09:06:48;;;;;;;;;;;26.70;60.70;;;;;;7324936;19;9242;-27
2023/06/18 09:09:17;;;;;;;;;;;26.80;61.20;;;;;;7325974;19;9476;-33
2023/06/18 09:11:49;;;;;;;;;;;26.80;61.10;;;;;;7324076;19;9182;-28
2023/06/18 09:14:18;;;;;;;;;;;26.80;61.20;;;;;;7325009;19;9250;-25
2023/06/18 09:16:47;;;;;;;;;;;26.80;60.80;;;;;;7328290;19;9499;-29
2023/06/18 09:19:17;;;;;;;;;;;26.80;60.50;;;;;;7332056;19;9185;-26
2023/06/18 09:21:46;;;;;;;;;;;26.80;60.50;;;;;;7331715;19;9193;-25
2023/06/18 09:24:21;;;;;;;;;;;26.80;60.50;;;;;;7333263;19;8944;-25
2023/06/18 09:27:04;;;;;;;;;;;26.90;60.40;;;;;;7330106;19;9229;-30
2023/06/18 09:29:36;;;;;;;;;;;26.90;60.20;;;;;;7331092;19;9193;-28
2023/06/18 09:32:10;;;;;;;;;;;27.00;60.20;;;;;;7321327;19;9249;-28
2023/06/18 09:34:40;;;;;;;;;;;27.10;59.50;;;;;;7324228;19;9360;-27
2023/06/18 09:37:10;;;;;;;;;;;27.10;59.50;;;;;;7327082;19;9134;-31
2023/06/18 09:39:40;;;;;;;;;;;27.10;59.50;;;;;;7330253;19;9261;-25
2023/06/18 09:42:14;;;;;;;;;;;27.20;59.40;;;;;;7328103;19;9385;-31
2023/06/18 09:44:48;;;;;;;;;;;27.20;59.20;;;;;;7329257;19;9211;-24
2023/06/18 09:47:17;;;;;;;;;;;27.30;59.40;;;;;;7332343;19;9452;-25
2023/06/18 09:49:47;;;;;;;;;;;27.40;58.30;;;;;;7331069;19;9233;-31
2023/06/18 09:52:16;;;;;;;;;;;27.40;58.90;;;;;;7327005;19;9234;-24
2023/06/18 09:54:47;;;;;;;;;;;27.50;57.20;;;;;;7329438;19;9457;-32
2023/06/18 09:57:19;;;;;;;;;;;27.50;56.20;;;;;;7330689;19;9235;-31
2023/06/18 09:59:48;;;;;;;;;;;27.50;56.60;;;;;;7330183;19;8945;-33
2023/06/18 10:02:27;;;;;;;;;;;27.50;56.20;;;;;;7330092;19;9194;-31
2023/06/18 10:04:56;;;;;;;;;;;27.50;55.90;;;;;;7330758;19;9167;-25
2023/06/18 10:07:26;;;;;;;;;;;27.50;56.30;;;;;;7328701;19;9214;-24
2023/06/18 10:09:56;;;;;;;;;;;27.60;56.20;;;;;;7330654;19;9194;-24
2023/06/18 10:12:28;;;;;;;;;;;27.60;55.90;;;;;;7325827;19;9300;-30
2023/06/18 10:14:59;;;;;;;;;;;27.70;55.50;;;;;;7329142;19;9295;-31
2023/06/18 10:17:34;;;;;;;;;;;27.80;55.90;;;;;;7329384;19;8944;-28
2023/06/18 10:20:07;;;;;;;;;;;27.80;55.60;;;;;;7328150;19;9459;-28
2023/06/18 10:23:39;;;;;;;;;;;27.90;54.90;;;;;;7315889;19;12452;-74
2023/06/18 10:26:10;;;;;;;;;;;27.70;54.60;;;;;;7338285;19;21803;-74
2023/06/18 10:28:41;;;;;;;;;;;27.50;56.10;;;;;;7317006;19;13106;-76
2023/06/18 10:31:12;;;;;;;;;;;27.30;56.00;;;;;;7360321;19;9253;-77
2023/06/18 10:33:44;;;;;;;;;;;27.20;56.30;;;;;;7359726;19;10989;-72
2023/06/18 10:36:14;;;;;;;;;;;27.10;56.30;;;;;;7358752;19;10620;-72
2023/06/18 10:38:47;;;;;;;;;;;27.00;54.20;;;;;;7360931;19;9826;-75
2023/06/18 10:41:21;;;;;;;;;;;27.00;55.10;;;;;;7358808;19;9337;-75
2023/06/18 10:43:54;;;;;;;;;;;27.00;52.50;;;;;;7360509;19;10112;-75
2023/06/18 10:46:25;;;;;;;;;;;26.90;55.90;;;;;;7361218;19;9226;-74
2023/06/18 10:49:19;;;;;;;;;;;27.00;55.40;;;;;;7362179;19;10356;-74
2023/06/18 10:52:27;;;;;;;;;;;27.00;56.20;;;;;;6267757;19;15037642;-74
2023/06/18 10:55:08;;;;;;;;;;;27.00;55.80;;;;;;7030331;19;162729;-74
2023/06/18 10:57:46;;;;;;;;;;;27.00;55.20;;;;;;7360752;19;9208;-73
2023/06/18 11:00:25;;;;;;;;;;;27.10;55.40;;;;;;7359846;19;9406;-74
2023/06/18 11:03:02;;;;;;;;;;;27.30;55.00;;;;;;7354286;19;10597;-74
2023/06/18 11:05:51;;;;;;;;;;;27.40;53.00;;;;;;7358406;19;9113;-74
2023/06/18 11:08:30;;;;;;;;;;;27.40;53.30;;;;;;7358917;19;9189;-76
2023/06/18 11:11:13;;;;;;;;;;;27.50;54.00;;;;;;7356280;19;10647;-76
2023/06/18 11:13:53;;;;;;;;;;;27.50;55.00;;;;;;7354739;19;10710;-78
2023/06/18 11:16:26;;;;;;;;;;;27.60;52.90;;;;;;7355522;19;11112;-79
2023/06/18 11:19:02;;;;;;;;;;;27.70;52.60;;;;;;7358275;19;10565;-77
2023/06/18 11:21:35;;;;;;;;;;;27.80;53.00;;;;;;7355025;19;9706;-77
2023/06/18 11:24:11;;;;;;;;;;;27.70;51.20;;;;;;7357611;19;10168;-78
2023/06/18 11:26:47;;;;;;;;;;;27.70;52.30;;;;;;7361016;19;8952;-76
2023/06/18 11:29:18;;;;;;;;;;;27.80;52.80;;;;;;7352012;19;9274;-77
2023/06/18 11:31:50;;;;;;;;;;;27.90;51.10;;;;;;7360602;19;9180;-77
2023/06/18 11:34:21;;;;;;;;;;;28.00;49.50;;;;;;7334399;19;9379;-77
2023/06/18 11:36:53;;;;;;;;;;;28.10;50.40;;;;;;7330887;19;9263;-77
2023/06/18 11:39:27;;;;;;;;;;;28.10;50.60;;;;;;7286239;19;13874;-77
2023/06/18 11:42:14;;;;;;;;;;;28.20;50.80;;;;;;7103680;19;966180;-78
2023/06/18 11:44:52;;;;;;;;;;;28.40;51.50;;;;;;7329263;19;9662;-77
2023/06/18 11:47:23;;;;;;;;;;;28.50;52.30;;;;;;7328440;19;10774;-79
2023/06/18 11:49:55;;;;;;;;;;;28.80;52.00;;;;;;7327042;19;10634;-78
2023/06/18 11:52:28;;;;;;;;;;;29.00;51.90;;;;;;7328798;19;9539;-79
2023/06/18 11:55:06;;;;;;;;;;;29.00;51.50;;;;;;7323278;19;9259;-78
2023/06/18 11:57:39;;;;;;;;;;;29.20;49.90;;;;;;7326358;19;9364;-79
2023/06/18 12:00:16;;;;;;;;;;;29.30;49.00;;;;;;7328665;19;10511;-79
2023/06/18 12:02:47;;;;;;;;;;;29.40;49.20;;;;;;7329062;19;10791;-77
2023/06/18 12:05:17;;;;;;;;;;;29.40;49.20;;;;;;7325889;19;11907;-77
2023/06/18 12:07:47;;;;;;;;;;;29.50;49.70;;;;;;7328953;19;9756;-78
2023/06/18 12:10:17;;;;;;;;;;;29.60;49.10;;;;;;7327950;19;9316;-78
2023/06/18 12:12:59;;;;;;;;;;;29.70;49.50;;;;;;7328953;19;9283;-79
2023/06/18 12:15:42;;;;;;;;;;;29.70;48.90;;;;;;7322682;19;9249;-78
2023/06/18 12:18:26;;;;;;;;;;;29.80;48.80;;;;;;7312743;19;10693;-76
2023/06/18 12:20:59;;;;;;;;;;;29.80;47.40;;;;;;7323280;19;10621;-76
2023/06/18 12:23:31;;;;;;;;;;;29.80;47.30;;;;;;7286813;19;9284;-68
2023/06/18 12:26:08;;;;;;;;;;;;;;;;;;7325912;19;9216;-69
2023/06/18 12:28:43;;;;;;;;;;;29.80;47.60;;;;;;7299900;19;9193;-66
2023/06/18 12:31:13;;;;;;;;;;;30.00;48.20;;;;;;7323268;19;9272;-69
2023/06/18 12:33:45;;;;;;;;;;;30.00;48.30;;;;;;7324068;19;9412;-68
2023/06/18 12:36:14;;;;;;;;;;;30.00;48.10;;;;;;7327779;19;9458;-69
2023/06/18 12:38:45;;;;;;;;;;;30.00;48.80;;;;;;7330503;19;9145;-69
2023/06/18 12:41:23;;;;;;;;;;;30.10;48.50;;;;;;7325678;19;9498;-69
2023/06/18 12:43:55;;;;;;;;;;;30.20;48.50;;;;;;7326328;19;10348;-67
2023/06/18 12:46:28;;;;;;;;;;;30.40;48.00;;;;;;7320417;19;9493;-66
2023/06/18 12:49:00;;;;;;;;;;;30.40;48.00;;;;;;7325924;19;9244;-66
2023/06/18 12:51:44;;;;;;;;;;;30.50;46.60;;;;;;7326911;19;10257;-67
2023/06/18 12:54:17;;;;;;;;;;;30.50;47.90;;;;;;7321570;19;9334;-68
2023/06/18 12:56:50;;;;;;;;;;;30.40;47.30;;;;;;7327060;19;8944;-67
2023/06/18 12:59:25;;;;;;;;;;;30.40;47.90;;;;;;7324944;19;9913;-67
2023/06/18 13:01:55;;;;;;;;;;;30.30;47.10;;;;;;7325277;19;9238;-66
2023/06/18 13:04:24;;;;;;;;;;;30.40;48.10;;;;;;7322041;19;9198;-69
2023/06/18 13:08:42;;;;;;;;;;;30.30;45.60;;;;;;7357631;19;8816;-73
2023/06/18 13:11:11;;;;;;;;;;;29.90;46.80;;;;;;7360640;19;9249;-73
2023/06/18 13:13:40;;;;;;;;;;;29.60;47.70;;;;;;7360882;19;9177;-74
2023/06/18 13:16:10;;;;;;;;;;;;;;;;;;7360258;19;9431;-74
2023/06/18 13:18:39;;;;;;;;;;;28.80;46.30;;;;;;7360316;19;9841;-74
2023/06/18 13:21:08;;;;;;;;;;;28.60;48.30;;;;;;7358759;19;9275;-72
2023/06/18 13:23:37;;;;;;;;;;;28.40;48.60;;;;;;7356760;19;9492;-75
2023/06/18 13:26:08;;;;;;;;;;;28.30;49.10;;;;;;7357837;19;9244;-77
2023/06/18 13:28:38;;;;;;;;;;;28.10;50.00;;;;;;7350943;19;9236;-77
2023/06/18 13:31:07;;;;;;;;;;;28.00;50.20;;;;;;7358368;19;9220;-74
2023/06/18 13:33:41;;;;;;;;;;;27.90;50.90;;;;;;7228368;19;5012724;-74
2023/06/18 13:36:11;;;;;;;;;;;27.80;51.20;;;;;;7282469;19;13061;-74
2023/06/18 13:38:41;;;;;;;;;;;27.70;51.60;;;;;;7360274;19;9254;-75
2023/06/18 13:41:12;;;;;;;;;;;27.70;51.80;;;;;;7348312;19;9225;-73
2023/06/18 13:48:30;;;;;;;;;;;27.70;51.80;;;;;;7132352;19;78247;-65
2023/06/18 13:54:31;;;;;;;7.75;7.05;;;27.80;52.40;;;;;;7035597;19;147915;-67
2023/06/18 13:59:08;;;;;;;;;;;27.90;52.60;;;;;;7200899;19;2996190;-79
2023/06/18 14:01:37;;;;;;;;;;;27.90;52.20;;;;;;7162835;19;14460;-79
2023/06/18 14:04:07;;;;;;;;;;;27.90;52.20;;;;;;7280934;19;69057;-75
2023/06/18 14:06:37;;;;;;;;;;;28.00;52.80;;;;;;7361956;19;9412;-73
2023/06/18 14:09:08;;;;;;;;;;;28.00;53.10;;;;;;7357881;19;9255;-75
2023/06/18 14:11:37;;;;;;;;;;;28.00;53.00;;;;;;7366505;19;9408;-83
2023/06/18 14:14:09;;;;;;;;;;;28.10;52.60;;;;;;7364893;19;9252;-78
2023/06/18 14:16:39;;;;;;;;;;;28.00;50.00;;;;;;7365849;19;9455;-86
2023/06/18 14:19:08;;;;;;;;;;;28.00;51.10;;;;;;7360930;19;9226;-81
2023/06/18 14:21:38;;;;;;;;;;;28.00;51.20;;;;;;7363483;19;9513;-86
2023/06/18 14:24:07;;;;;;;;;;;28.00;51.10;;;;;;7357850;19;10132;-84
2023/06/18 14:26:36;;;;;;;;;;;28.00;51.80;;;;;;7357256;19;9467;-77
2023/06/18 14:29:05;;;;;;;;;;;27.90;51.90;;;;;;7362351;19;9250;-77
2023/06/18 14:31:38;;;;;;;;;;;27.90;52.10;;;;;;7363178;19;9214;-76
2023/06/18 14:34:07;;;;;;;;;;;27.90;52.30;;;;;;7360307;19;9247;-77
2023/06/18 14:36:36;;;;;;;;;;;27.90;52.80;;;;;;7362724;19;9250;-77
2023/06/18 14:39:07;;;;;;;;;;;27.80;53.00;;;;;;7359576;19;10124;-76
2023/06/18 14:41:36;;;;;;;;;;;27.80;53.40;;;;;;7362130;19;9207;-77
2023/06/18 14:44:05;;;;;;;;;;;27.80;53.70;;;;;;7360940;19;9417;-77
2023/06/18 14:46:38;;;;;;;;;;;27.70;54.00;;;;;;7362529;19;9470;-77
2023/06/18 14:49:07;;;;;;;;;;;27.70;54.10;;;;;;7362786;19;9475;-77
2023/06/18 14:51:36;;;;;;;;;;;27.60;54.20;;;;;;7362819;19;9411;-77
2023/06/18 14:54:11;;;;;;;;;;;27.60;54.40;;;;;;7362355;19;8944;-77
2023/06/18 14:56:43;;;;;;;;;;;27.60;54.50;;;;;;7360904;19;9287;-77
2023/06/18 14:59:13;;;;;;;;;;;27.50;54.60;;;;;;7358235;19;9257;-77
2023/06/18 15:01:45;;;;;;;;;;;27.50;54.70;;;;;;7361241;19;8948;-77
2023/06/18 15:04:14;;;;;;;;;;;27.50;54.90;;;;;;7361628;19;8996;-77